Terminal Aerodrome Forecast
Issued by NWS Pittsburgh, PA

Current Version | Previous Version | Text Only | Print | Product List | Glossary Off
Versions: 1 2 3 4 5 6 7 8 9 10 11 12 13 14 15 16 17 18 19 20 21 22 23 24 25 26 27 28 29

623
FTUS41 KPBZ 240542
TAFPIT
TAF
KPIT 240542Z 2406/2512 35006KT P6SM SCT015 BKN070
     FM240700 35005KT P6SM SCT008 BKN015
     FM241600 03006KT P6SM BKN035
     FM242000 01005KT P6SM SKC=

USA.gov is the U.S. government's official web portal to all federal, state and local government web resources and services.